FW7449 Weather Reports


Display with metric or nautical units.
time (UTC)temp
F
wind
direction
speed
MPH
gust
MPH
rain 1hr
in
rain 24hr
in
rain mn
in
humidity
%
barometer
mb
20210922021622 66 0 0.0 2.0 0.00 0.61 0.54 98 1019.6
20210922020039 66 0 0.0 3.0 0.00 0.61 0.54 98 1019.7
20210922014525 67 0 0.0 3.0 0.00 0.61 0.54 98 1019.9
20210922013035 66 0 0.0 0.0 0.00 0.61 0.54 97 1019.9
20210922011541 67 0 0.0 0.0 0.00 0.61 0.54 97 1019.8
20210922010136 66 0 0.0 0.0 0.00 0.61 0.54 97 1019.7
20210922004543 67 0 0.0 0.0 0.00 0.61 0.54 97 1019.7
20210922003118 66 352 0.0 2.0 0.01 0.61 0.54 97 1019.6
20210922001538 67 0 0.0 0.0 0.01 0.61 0.54 97 1019.6
20210922000112 66 0 0.0 2.0 0.01 0.61 0.54 97 1019.6
20210921234533 67 24 0.0 3.0 0.02 0.61 0.54 97 1019.6
20210921233124 67 0 0.0 0.0 0.01 0.60 0.52 97 1019.6
20210921231616 67 0 0.0 3.0 0.01 0.60 0.52 97 1019.8
20210921230109 67 0 1.0 3.0 0.01 0.60 0.52 96 1019.6
20210921224612 67 0 0.0 3.0 0.01 0.58 0.52 97 1019.7
20210921223057 67 19 2.0 4.0 0.01 0.58 0.52 96 1019.7
20210921221608 67 17 1.0 3.0 0.01 0.58 0.52 96 1019.8
20210921220052 67 11 0.0 3.0 0.01 0.58 0.52 96 1019.8
20210921214611 67 26 2.0 5.0 0.00 0.58 0.51 96 1020.0
20210921213045 67 14 1.0 5.0 0.00 0.58 0.51 96 1020.1
20210921211550 67 69 2.0 8.0 0.01 0.58 0.51 96 1020.3
20210921210131 68 0 0.0 3.0 0.01 0.58 0.51 96 1020.3
20210921204615 67 0 0.0 4.0 0.01 0.58 0.51 96 1020.4
20210921203138 67 9 0.0 5.0 0.02 0.58 0.51 96 1020.5
20210921201533 68 83 2.0 4.0 0.01 0.57 0.50 96 1020.5
20210921200038 67 29 0.0 4.0 0.02 0.57 0.50 97 1020.7
20210921194555 67 98 1.0 4.0 0.03 0.57 0.50 96 1020.8
20210921193052 67 28 2.0 4.0 0.03 0.56 0.49 96 1020.9
20210921191548 67 0 1.0 7.0 0.04 0.56 0.49 96 1021.0
20210921190057 67 15 1.0 5.0 0.06 0.55 0.48 96 1021.2
20210921184548 67 345 2.0 4.0 0.06 0.54 0.47 96 1021.4
20210921183027 67 9 3.0 5.0 0.08 0.52 0.46 96 1021.6
20210921181543 67 46 3.0 8.0 0.13 0.52 0.45 96 1021.8
20210921180149 67 11 3.0 8.0 0.10 0.49 0.42 96 1022.0
20210921174534 67 0 1.0 3.0 0.10 0.48 0.41 97 1022.3
20210921173044 67 352 2.0 4.0 0.06 0.44 0.37 96 1022.3
20210921171535 67 22 1.0 4.0 0.01 0.39 0.32 96 1022.4
20210921170034 67 40 1.0 5.0 0.03 0.39 0.32 96 1022.5
20210921164549 66 44 1.0 4.0 0.02 0.38 0.31 96 1022.5
20210921163044 66 0 0.0 4.0 0.03 0.38 0.31 96 1022.6
20210921161534 66 0 1.0 7.0 0.05 0.38 0.31 96 1022.6
20210921160039 65 58 1.0 8.0 0.05 0.36 0.29 97 1022.8
20210921154538 65 0 1.0 5.0 0.07 0.36 0.29 97 1022.8
20210921153038 65 48 2.0 10.0 0.06 0.35 0.28 97 1022.8
20210921151603 65 0 1.0 5.0 0.05 0.33 0.26 96 1022.9
20210921150053 65 111 1.0 4.0 0.03 0.31 0.24 96 1023.0
20210921144605 66 27 0.0 5.0 0.01 0.29 0.22 96 1022.9
20210921143051 66 42 1.0 6.0 0.02 0.29 0.22 96 1022.9
20210921141545 65 63 1.0 4.0 0.02 0.28 0.21 96 1022.9
20210921140059 65 78 2.0 7.0 0.02 0.28 0.21 96 1023.0
20210921134559 65 69 3.0 8.0 0.02 0.28 0.21 96 1022.9
20210921133107 65 88 3.0 8.0 0.01 0.27 0.20 96 1022.8
20210921131536 65 88 2.0 7.0 0.02 0.26 0.19 96 1022.8
20210921130030 65 63 1.0 7.0 0.05 0.26 0.19 96 1022.8
20210921124609 65 110 2.0 6.0 0.05 0.26 0.19 96 1022.8
20210921123034 65 76 1.0 5.0 0.06 0.26 0.19 96 1022.7
20210921121527 65 99 2.0 4.0 0.07 0.24 0.17 96 1022.8
20210921120112 65 81 1.0 4.0 0.04 0.21 0.14 96 1022.7
20210921114554 65 148 0.0 9.0 0.04 0.21 0.14 96 1022.6
20210921113042 65 124 1.0 3.0 0.05 0.19 0.12 96 1022.6
20210921111538 65 16 2.0 5.0 0.07 0.17 0.10 96 1022.1
20210921110135 65 15 1.0 3.0 0.09 0.17 0.10 96 1022.2
20210921104654 65 0 0.0 1.0 0.08 0.16 0.09 95 1022.3
20210921103105 65 0 0.0 3.0 0.06 0.14 0.07 94 1022.1
20210921101542 66 120 1.0 3.0 0.02 0.10 0.03 93 1021.9
20210921100030 66 96 1.0 4.0 0.00 0.08 0.01 92 1021.9
20210921094540 66 63 2.0 8.0 0.00 0.08 0.01 90 1021.9
20210921093050 66 97 2.0 7.0 0.00 0.08 0.01 90 1021.9
20210921091601 66 74 1.0 4.0 0.00 0.08 0.01 90 1021.8
20210921090101 66 87 2.0 4.0 0.00 0.08 0.01 90 1021.9
20210921084631 67 0 0.0 2.0 0.00 0.08 0.01 91 1022.0
20210921083039 66 0 1.0 3.0 0.00 0.08 0.01 91 1022.0
20210921081634 67 0 0.0 3.0 0.00 0.08 0.01 92 1022.2
20210921080035 67 0 0.0 0.0 0.00 0.08 0.01 93 1022.3
20210921074551 67 0 1.0 3.0 0.00 0.08 0.01 94 1022.4
20210921073034 67 0 0.0 0.0 0.00 0.08 0.01 95 1022.4
20210921071600 67 0 0.0 3.0 0.00 0.08 0.01 93 1022.3
20210921070105 68 0 0.0 2.0 0.00 0.08 0.01 94 1022.3
20210921064525 68 0 0.0 2.0 0.00 0.08 0.01 94 1022.5
20210921063046 68 0 0.0 2.0 0.00 0.08 0.01 94 1022.4
20210921061543 68 0 0.0 2.0 0.00 0.08 0.01 95 1022.3
20210921060037 68 0 0.0 2.0 0.01 0.08 0.01 95 1022.4
20210921054545 68 86 0.0 2.0 0.01 0.08 0.01 95 1022.5
20210921053025 68 0 0.0 4.0 0.01 0.08 0.01 95 1022.5
20210921051558 68 0 1.0 4.0 0.01 0.08 0.01 96 1022.6
20210921050144 69 0 0.0 3.0 0.00 0.07 0.00 96 1022.7
20210921044536 68 0 0.0 3.0 0.00 0.07 0.00 96 1022.7
20210921043035 69 0 0.0 0.0 0.00 0.07 0.00 96 1023.1
20210921041557 69 59 2.0 6.0 0.01 0.07 0.00 95 1022.9
20210921040041 69 126 2.0 6.0 0.04 0.07 0.00 95 1022.8
20210921034547 69 80 1.0 8.0 0.05 0.07 0.07 95 1022.9
20210921033108 69 126 3.0 8.0 0.05 0.07 0.07 94 1023.1
20210921031613 69 59 2.0 7.0 0.05 0.06 0.06 92 1023.3
20210921030104 70 140 3.0 8.0 0.03 0.03 0.03 91 1023.1
20210921024550 70 165 2.0 6.0 0.02 0.02 0.02 89 1023.1
20210921023140 71 65 1.0 5.0 0.02 0.02 0.02 89 1023.0